Home > Products > Valid Products > TAF

000
FTUS43 KICT 222300
TAFHUT
TAF
KHUT 222320Z 2300/2324 18012KT P6SM SHRA SCT025 OVC050
     FM230200 18008KT P6SM BKN050
     FM231100 18006KT 4SM BR OVC007
     FM231800 18010KT P6SM BKN020=



000
FTUS43 KICT 222300
TAFRSL
TAF
KRSL 222320Z 2300/2324 19010KT P6SM BKN060
     FM230800 19005KT P6SM BKN030
     FM231000 VRB04KT 1SM BR OVC004
     FM231700 15010KT P6SM BKN015=



000
FTUS43 KICT 222300
TAFSLN
TAF
KSLN 222320Z 2300/2324 19008KT P6SM OVC060
      TEMPO 2300/2302 5SM -SHRA
     FM230200 19005KT P6SM BKN050
     FM231000 VRB04KT 2SM BR OVC007
     FM231700 18010KT P6SM BKN015=



000
FTUS43 KICT 222300
TAFCNU
TAF
KCNU 222320Z 2300/2324 17010KT P6SM SCT060
     FM230500 17008KT P6SM SHRA SCT025 OVC050
     FM230700 18008KT P6SM BKN015
     FM231200 18008KT 3SM BR OVC007
     FM231800 18010KT P6SM BKN020=



000
FTUS43 KICT 222300
TAFICT
TAF
KICT 222320Z 2300/2324 18012KT P6SM SHRA SCT025 OVC050
     FM230200 18008KT P6SM BKN050
     FM231100 17006KT 4SM BR OVC007
     FM231800 18008KT P6SM BKN020=



000
FTUS43 KICT 222000 AAA
TAFHUT
TAF AMD
KHUT 222045Z 2221/2318 18018G29KT P6SM BKN100
     FM222200 19008KT P6SM VCSH OVC050
      TEMPO 2223/2303 5SM -SHRA OVC050
     FM230500 18006KT P6SM BKN050
     FM231100 17005KT 2SM BR BKN008=



000
FTUS43 KICT 221700
TAFCNU
TAF
KCNU 221720Z 2218/2318 16012KT P6SM BKN250
     FM230500 16007KT P6SM VCSH SCT025 OVC050
      TEMPO 2306/2310 5SM -SHRA BKN025
     FM231000 17007KT 5SM BR BKN008=



000
FTUS43 KICT 221700
TAFICT
TAF
KICT 221720Z 2218/2318 18017G25KT P6SM SCT120 BKN150
     FM230000 18009KT P6SM VCSH OVC070
      TEMPO 2301/2305 6SM -SHRA
     FM231200 18006KT 4SM BR BKN008=



000
FTUS43 KICT 221700
TAFSLN
TAF
KSLN 221720Z 2218/2318 18018G25KT P6SM BKN100
     FM230000 18011KT P6SM VCTS OVC050CB
      TEMPO 2300/2304 5SM -SHRA OVC050
     FM230500 18006KT P6SM BKN070
     FM231100 18005KT 3SM BR BKN008=



000
FTUS43 KICT 221700
TAFHUT
TAF
KHUT 221720Z 2218/2318 18017G25KT P6SM BKN100
     FM230000 19008KT P6SM VCTS OVC050CB
      TEMPO 2300/2304 5SM -SHRA OVC050
     FM230500 18006KT P6SM BKN050
     FM231100 17005KT 2SM BR BKN008=



000
FTUS43 KICT 221700
TAFRSL
TAF
KRSL 221720Z 2218/2318 18017G25KT P6SM VCTS SCT050CB BKN100
      TEMPO 2221/2224 5SM -SHRA OVC050
     FM230000 18012KT P6SM VCTS OVC050CB
      TEMPO 2300/2303 5SM -SHRA OVC050
     FM230300 21010KT P6SM BKN070
     FM231000 24005KT 2SM BR OVC008=



000
FTUS43 KICT 221700
TAFCNU
TAF
KCNU 221720Z 2218/2318 16012KT P6SM BKN250
     FM230500 16007KT P6SM VCSH SCT025 OVC050
      TEMPO 2306/2310 5SM -SHRA BKN025
     FM231000 17007KT 5SM BR BKN008=



000
FTUS43 KICT 221700
TAFICT
TAF
KICT 221720Z 2218/2318 18017G25KT P6SM SCT120 BKN150
     FM230000 18009KT P6SM VCSH OVC070
      TEMPO 2301/2305 6SM -SHRA
     FM231200 18006KT 4SM BR BKN008=



000
FTUS43 KICT 221700
TAFHUT
TAF
KHUT 221720Z 2218/2318 18017G25KT P6SM BKN100
     FM230000 19008KT P6SM VCTS OVC050CB
      TEMPO 2300/2304 5SM -SHRA OVC050
     FM230500 18006KT P6SM BKN050
     FM231100 17005KT 2SM BR BKN008=



000
FTUS43 KICT 221700
TAFSLN
TAF
KSLN 221720Z 2218/2318 18018G25KT P6SM BKN100
     FM230000 18011KT P6SM VCTS OVC050CB
      TEMPO 2300/2304 5SM -SHRA OVC050
     FM230500 18006KT P6SM BKN070
     FM231100 18005KT 3SM BR BKN008=



000
FTUS43 KICT 221700
TAFRSL
TAF
KRSL 221720Z 2218/2318 18017G25KT P6SM VCTS SCT050CB BKN100
      TEMPO 2221/2224 5SM -SHRA OVC050
     FM230000 18012KT P6SM VCTS OVC050CB
      TEMPO 2300/2303 5SM -SHRA OVC050
     FM230300 21010KT P6SM BKN070
     FM231000 24005KT 2SM BR OVC008=



000
FTUS43 KICT 221100
TAFHUT
TAF
KHUT 221131Z 2212/2312 15007KT P6SM SKC
      TEMPO 2212/2214 3SM BR
     FM221700 18017G24KT P6SM SCT045 SCT150
     FM222200 18008KT P6SM VCSH SCT025 OVC050
     FM230700 18006KT 4SM BR SCT015=



000
FTUS43 KICT 221100
TAFSLN
TAF
KSLN 221131Z 2212/2312 16011KT P6SM SKC
     FM221600 18018G25KT P6SM SCT150
     FM222300 19009KT P6SM VCSH SCT025 OVC050
     FM230800 19006KT 5SM BR SCT015=



000
FTUS43 KICT 221100
TAFCNU
TAF
KCNU 221131Z 2212/2312 13007KT P6SM SCT035 BKN060
     FM221700 16012KT P6SM FEW035 SCT060
     FM230400 16007KT P6SM VCSH SCT025 OVC050=



000
FTUS43 KICT 221100
TAFRSL
TAF
KRSL 221131Z 2212/2312 17011KT P6SM SCT150
     FM221500 18017G25KT P6SM BKN150
     FM221800 18019G27KT P6SM VCSH BKN050
     FM230300 19006KT 4SM BR SCT015=



000
FTUS43 KICT 221100
TAFICT
TAF
KICT 221131Z 2212/2312 16009KT P6SM SKC
      TEMPO 2212/2214 5SM BR
     FM221700 18017G24KT P6SM SCT045 SCT150
     FM222300 18009KT P6SM VCSH SCT025 OVC050
     FM230800 18006KT 5SM BR SCT015=



000
FTUS43 KICT 221000 AAA
TAFHUT
TAF AMD
KHUT 221009Z 2210/2306 15007KT P6SM SKC
      TEMPO 2210/2213 3SM BR
     FM221700 18018G25KT P6SM SCT150
     FM230000 19012KT P6SM VCSH BKN050=



000
FTUS43 KICT 221000 AAA
TAFHUT
TAF AMD
KHUT 221009Z 2210/2306 15007KT P6SM SKC
      TEMPO 2210/2213 3SM BR
     FM221700 18018G25KT P6SM SCT150
     FM230000 19012KT P6SM VCSH BKN050=



000
FTUS43 KICT 221000 AAA
TAFICT
TAF AMD
KICT 221008Z 2210/2306 16008KT P6SM SKC
      TEMPO 2211/2213 5SM BR
     FM221700 18017G25KT P6SM SCT150
     FM230000 18008KT P6SM BKN150
     FM230100 19010KT P6SM VCSH OVC050=



000
FTUS43 KICT 221000 AAA
TAFICT
TAF AMD
KICT 221008Z 2210/2306 16008KT P6SM SKC
      TEMPO 2211/2213 5SM BR
     FM221700 18017G25KT P6SM SCT150
     FM230000 18008KT P6SM BKN150
     FM230100 19010KT P6SM VCSH OVC050=



000
FTUS43 KICT 220500
TAFSLN
TAF
KSLN 220520Z 2206/2306 17012KT P6SM SCT150
     FM221500 18020G33KT P6SM BKN150
     FM222300 19012KT P6SM VCSH SCT030 OVC100=



000
FTUS43 KICT 220500
TAFRSL
TAF
KRSL 220520Z 2206/2306 17012KT P6SM SCT150
     FM221500 19020G33KT P6SM BKN150
     FM222200 17012KT P6SM VCSH SCT030 OVC100=



000
FTUS43 KICT 220500
TAFCNU
TAF
KCNU 220520Z 2206/2306 12005KT P6SM SKC
     FM221400 17012KT P6SM SCT050=



000
FTUS43 KICT 220500
TAFHUT
TAF
KHUT 220520Z 2206/2306 17010KT P6SM SKC
     FM221700 18018G28KT P6SM SCT150
     FM230000 19012KT P6SM VCSH BKN050=



000
FTUS43 KICT 220500
TAFICT
TAF
KICT 220520Z 2206/2306 16010KT P6SM SKC
     FM221700 18018G28KT P6SM SCT150
     FM230000 18008KT P6SM BKN150
     FM230100 19010KT P6SM VCSH OVC050=



000
FTUS43 KICT 220500
TAFRSL
TAF
KRSL 220520Z 2206/2306 17012KT P6SM SCT150
     FM221500 19020G33KT P6SM BKN150
     FM222200 17012KT P6SM VCSH SCT030 OVC100=



000
FTUS43 KICT 220500
TAFICT
TAF
KICT 220520Z 2206/2306 16010KT P6SM SKC
     FM221700 18018G28KT P6SM SCT150
     FM230000 18008KT P6SM BKN150
     FM230100 19010KT P6SM VCSH OVC050=



000
FTUS43 KICT 220500
TAFHUT
TAF
KHUT 220520Z 2206/2306 17010KT P6SM SKC
     FM221700 18018G28KT P6SM SCT150
     FM230000 19012KT P6SM VCSH BKN050=



000
FTUS43 KICT 220500
TAFSLN
TAF
KSLN 220520Z 2206/2306 17012KT P6SM SCT150
     FM221500 18020G33KT P6SM BKN150
     FM222300 19012KT P6SM VCSH SCT030 OVC100=



000
FTUS43 KICT 220500
TAFCNU
TAF
KCNU 220520Z 2206/2306 12005KT P6SM SKC
     FM221400 17012KT P6SM SCT050=



000
FTUS43 KICT 212300
TAFSLN
TAF
KSLN 212322Z 2200/2224 14010KT P6SM SKC
     FM220500 18010KT P6SM SCT060
     FM221500 18015G24KT P6SM BKN060 OVC100=



000
FTUS43 KICT 212300
TAFSLN
TAF
KSLN 212322Z 2200/2224 14010KT P6SM SKC
     FM220500 18010KT P6SM SCT060
     FM221500 18015G24KT P6SM BKN060 OVC100=



000
FTUS43 KICT 212300
TAFRSL
TAF
KRSL 212322Z 2200/2224 14012KT P6SM SKC
     FM220400 18012KT P6SM SCT060
     FM221500 18015G24KT P6SM BKN060 OVC100=



000
FTUS43 KICT 212300
TAFRSL
TAF
KRSL 212322Z 2200/2224 14012KT P6SM SKC
     FM220400 18012KT P6SM SCT060
     FM221500 18015G24KT P6SM BKN060 OVC100=



000
FTUS43 KICT 212300
TAFCNU
TAF
KCNU 212322Z 2200/2224 11005KT P6SM SKC
     FM220500 12005KT P6SM BKN040
     FM221500 16012KT P6SM BKN030=



000
FTUS43 KICT 212300
TAFHUT
TAF
KHUT 212322Z 2200/2224 17010KT P6SM SKC
     FM221500 18015G22KT P6SM BKN100=



000
FTUS43 KICT 212300
TAFICT
TAF
KICT 212322Z 2200/2224 18010KT P6SM SKC
     FM221500 18015G22KT P6SM BKN100=



000
FTUS43 KICT 212200 AAA
TAFICT
TAF AMD
KICT 212210Z 2122/2218 19013KT P6SM SCT050
     FM221700 17013G22KT P6SM BKN250=



000
FTUS43 KICT 212200 AAA
TAFICT
TAF AMD
KICT 212210Z 2122/2218 19013KT P6SM SCT050
     FM221700 17013G22KT P6SM BKN250=



000
FTUS43 KICT 211700
TAFSLN
TAF
KSLN 211720Z 2118/2218 15008KT P6SM SCT050
     FM221700 17014G21KT P6SM BKN200=



000
FTUS43 KICT 211700
TAFCNU
TAF
KCNU 211720Z 2118/2218 15006KT P6SM FEW050
     FM220000 12005KT P6SM SCT050
     FM221700 16009KT P6SM FEW050 SCT250=



000
FTUS43 KICT 211700
TAFRSL
TAF
KRSL 211720Z 2118/2218 15012KT P6SM SCT050
     FM221600 18015G22KT P6SM BKN070=



000
FTUS43 KICT 211700
TAFHUT
TAF
KHUT 211720Z 2118/2218 15012KT P6SM SCT060
     FM221600 17014G21KT P6SM BKN200=



000
FTUS43 KICT 211700
TAFICT
TAF
KICT 211720Z 2118/2218 15012KT P6SM SCT050
     FM221700 17014G21KT P6SM BKN250=



000
FTUS43 KICT 211100
TAFCNU
TAF
KCNU 211127Z 2112/2212 11004KT P6SM SKC
      TEMPO 2112/2114 3SM BR
     FM211800 17007KT P6SM SCT040=



000
FTUS43 KICT 211100
TAFHUT
TAF
KHUT 211127Z 2112/2212 10005KT P6SM SCT040
      TEMPO 2112/2114 5SM BR
     FM211700 15010KT P6SM SCT040=



000
FTUS43 KICT 211100
TAFICT
TAF
KICT 211127Z 2112/2212 10005KT P6SM SCT040
      TEMPO 2112/2114 5SM BR
     FM211700 15010KT P6SM SCT040=



000
FTUS43 KICT 211100
TAFSLN
TAF
KSLN 211127Z 2112/2212 10004KT P6SM FEW040
      TEMPO 2112/2114 5SM BR
     FM211700 16009KT P6SM SCT040=



000
FTUS43 KICT 211100
TAFRSL
TAF
KRSL 211127Z 2112/2212 16010KT P6SM SCT040=



000
FTUS43 KICT 211100
TAFHUT
TAF
KHUT 211127Z 2112/2212 10005KT P6SM SCT040
      TEMPO 2112/2114 5SM BR
     FM211700 15010KT P6SM SCT040=



000
FTUS43 KICT 211100
TAFICT
TAF
KICT 211127Z 2112/2212 10005KT P6SM SCT040
      TEMPO 2112/2114 5SM BR
     FM211700 15010KT P6SM SCT040=



000
FTUS43 KICT 211100
TAFCNU
TAF
KCNU 211127Z 2112/2212 11004KT P6SM SKC
      TEMPO 2112/2114 3SM BR
     FM211800 17007KT P6SM SCT040=



000
FTUS43 KICT 211100
TAFRSL
TAF
KRSL 211127Z 2112/2212 16010KT P6SM SCT040=



000
FTUS43 KICT 211100
TAFSLN
TAF
KSLN 211127Z 2112/2212 10004KT P6SM FEW040
      TEMPO 2112/2114 5SM BR
     FM211700 16009KT P6SM SCT040=



000
FTUS43 KICT 211000 AAB
TAFSLN
TAF AMD
KSLN 211029Z 2110/2206 VRB03KT P6SM SKC
      TEMPO 2111/2114 4SM BR
     FM211500 14006KT P6SM SCT035
     FM211700 17009KT P6SM SCT035=



000
FTUS43 KICT 211000 AAB
TAFSLN
TAF AMD
KSLN 211029Z 2110/2206 VRB03KT P6SM SKC
      TEMPO 2111/2114 4SM BR
     FM211500 14006KT P6SM SCT035
     FM211700 17009KT P6SM SCT035=



000
FTUS43 KICT 211000 AAA
TAFRSL
TAF AMD
KRSL 211027Z 2110/2206 17009KT P6SM SCT035
     FM211700 16009KT P6SM BKN035=



000
FTUS43 KICT 211000 AAA
TAFRSL
TAF AMD
KRSL 211027Z 2110/2206 17009KT P6SM SCT035
     FM211700 16009KT P6SM BKN035=



000
FTUS43 KICT 211000 AAB
TAFCNU
TAF AMD
KCNU 211026Z 2110/2206 00000KT P6SM SKC
     FM211100 00000KT 3SM BR SKC
      TEMPO 2111/2114 1SM BR SCT003
     FM211500 17007KT P6SM SKC=



000
FTUS43 KICT 211000 AAB
TAFCNU
TAF AMD
KCNU 211026Z 2110/2206 00000KT P6SM SKC
     FM211100 00000KT 3SM BR SKC
      TEMPO 2111/2114 1SM BR SCT003
     FM211500 17007KT P6SM SKC=



000
FTUS43 KICT 211000 AAB
TAFHUT
TAF AMD
KHUT 211023Z 2110/2206 00000KT P6SM FEW035
     FM211100 09005KT 5SM BR SCT035
      TEMPO 2111/2114 3SM BR
     FM211500 15009KT P6SM BKN035=



000
FTUS43 KICT 211000 AAB
TAFHUT
TAF AMD
KHUT 211023Z 2110/2206 00000KT P6SM FEW035
     FM211100 09005KT 5SM BR SCT035
      TEMPO 2111/2114 3SM BR
     FM211500 15009KT P6SM BKN035=



000
FTUS43 KICT 211000 AAB
TAFICT
TAF AMD
KICT 211022Z 2110/2206 00000KT P6SM FEW035
     FM211100 09005KT 5SM BR SCT035
      TEMPO 2111/2114 3SM BR
     FM211500 14009KT P6SM BKN035=



000
FTUS43 KICT 211000 AAB
TAFICT
TAF AMD
KICT 211022Z 2110/2206 00000KT P6SM FEW035
     FM211100 09005KT 5SM BR SCT035
      TEMPO 2111/2114 3SM BR
     FM211500 14009KT P6SM BKN035=



000
FTUS43 KICT 210800 AAA
TAFSLN
TAF AMD
KSLN 210827Z 2108/2206 16004KT P6SM SKC
     FM211100 12004KT 5SM BR SKC
      TEMPO 2111/2114 3SM BR
     FM211500 14007KT P6SM SKC
     FM211700 17009KT P6SM SCT035=



000
FTUS43 KICT 210800 AAA
TAFCNU
TAF AMD
KCNU 210825Z 2108/2206 00000KT P6SM SKC
     FM210900 00000KT 4SM BR SKC
      TEMPO 2109/2111 2SM BR
     FM211100 00000KT 1SM BR SCT002
      TEMPO 2111/2114 1/2SM FG VV002
     FM211500 17007KT P6SM SKC=



000
FTUS43 KICT 210800 AAA
TAFHUT
TAF AMD
KHUT 210821Z 2108/2206 00000KT P6SM SKC
     FM211100 09005KT 4SM BR SKC
      TEMPO 2111/2114 2SM BR
     FM211400 11007KT 5SM BR SCT035
     FM211500 15009KT P6SM BKN035=



000
FTUS43 KICT 210800 AAA
TAFICT
TAF AMD
KICT 210819Z 2108/2206 00000KT P6SM SKC
     FM211100 09005KT 4SM BR SKC
      TEMPO 2111/2114 2SM BR SCT020
     FM211400 11007KT 5SM BR SCT035
     FM211500 15009KT P6SM BKN035=



000
FTUS43 KICT 210500
TAFSLN
TAF
KSLN 210520Z 2106/2206 16004KT P6SM SKC
     FM211100 12004KT 5SM BR SKC
      TEMPO 2111/2115 2SM BR
     FM211500 14007KT P6SM SKC
     FM211700 17009KT P6SM SCT035=



000
FTUS43 KICT 210500
TAFHUT
TAF
KHUT 210520Z 2106/2206 00000KT P6SM SKC
     FM211000 09005KT 4SM BR SKC
      TEMPO 2110/2114 2SM BR
     FM211400 11007KT 5SM BR SCT035
     FM211500 15009KT P6SM BKN035=



000
FTUS43 KICT 210500
TAFCNU
TAF
KCNU 210520Z 2106/2206 00000KT P6SM SKC
     FM210800 00000KT 4SM BR SKC
      TEMPO 2108/2111 2SM BR
     FM211100 00000KT 1SM BR SKC
      TEMPO 2111/2114 1/2SM FG VV002
     FM211400 15004KT 3SM BR SKC
     FM211500 17007KT P6SM SKC=



000
FTUS43 KICT 210500
TAFRSL
TAF
KRSL 210520Z 2106/2206 17007KT P6SM SKC
     FM211100 18007KT 5SM BR SKC
     FM211400 18007KT P6SM SKC
     FM211700 16009KT P6SM BKN035=



000
FTUS43 KICT 210500
TAFICT
TAF
KICT 210520Z 2106/2206 00000KT P6SM SKC
     FM211000 09005KT 4SM BR SKC
      TEMPO 2110/2114 2SM BR SCT020
     FM211400 11007KT 5SM BR SCT035
     FM211500 15009KT P6SM BKN035=



000
FTUS43 KICT 202300
TAFRSL
TAF
KRSL 202322Z 2100/2124 10005KT P6SM SKC
     FM210500 17004KT P6SM SKC
     FM211100 18007KT 5SM BR SKC
     FM211700 16009KT P6SM BKN035=



000
FTUS43 KICT 202300
TAFSLN
TAF
KSLN 202322Z 2100/2124 07003KT P6SM SKC
     FM210500 16004KT P6SM SKC
     FM211100 12004KT 3SM BR SKC
     FM211500 17009KT P6SM SCT040=



000
FTUS43 KICT 202300
TAFCNU
TAF
KCNU 202322Z 2100/2124 03005KT P6SM SKC
     FM210500 07003KT P6SM SKC
     FM211100 09003KT 4SM BR SKC
     FM211400 15007KT P6SM SKC=



000
FTUS43 KICT 202300
TAFICT
TAF
KICT 202322Z 2100/2124 05005KT P6SM SKC
     FM210800 09005KT 4SM BR SKC
     FM211100 10005KT 3SM BR SKC
      TEMPO 2111/2114 1SM BR
     FM211400 11007KT 5SM BR SCT035
     FM211500 15009KT P6SM BKN035=



000
FTUS43 KICT 202300
TAFHUT
TAF
KHUT 202322Z 2100/2124 05009KT P6SM SKC
     FM210800 10007KT 3SM BR SKC
      TEMPO 2108/2111 1SM BR
     FM211100 11005KT 2SM BR SKC
      TEMPO 2111/2114 1/2SM FG SCT002
     FM211400 12007KT 4SM BR SCT010
     FM211600 15009KT P6SM BKN035=



000
FTUS43 KICT 202200 AAA
TAFHUT
TAF AMD
KHUT 202257Z 2023/2118 05009KT P6SM SKC
     FM210800 10007KT 3SM BR SKC
      TEMPO 2108/2111 1SM BR
     FM211100 11005KT 2SM BR SKC
      TEMPO 2111/2114 1/2SM FG SCT002
     FM211400 12007KT 4SM BR SCT010
     FM211600 15009KT P6SM BKN035=



000
FTUS43 KICT 201700
TAFICT
TAF
KICT 201720Z 2018/2118 05008KT P6SM SKC
     FM210000 06005KT P6SM SKC
     FM211200 09005KT 5SM BR SCT015
     FM211400 10005KT 5SM BR BKN015=



000
FTUS43 KICT 201700
TAFHUT
TAF
KHUT 201720Z 2018/2118 06013KT P6SM SKC
     FM210000 05005KT P6SM SKC
     FM211400 09005KT P6SM SCT020=



000
FTUS43 KICT 201700
TAFRSL
TAF
KRSL 201720Z 2018/2118 05008KT P6SM SKC
     FM210000 09006KT P6SM SKC
     FM210600 15006KT P6SM SKC
     FM211300 16005KT 5SM BR SCT020=



000
FTUS43 KICT 201700
TAFSLN
TAF
KSLN 201720Z 2018/2118 04009KT P6SM SKC
     FM210000 08006KT P6SM SKC
     FM210600 15006KT P6SM SKC
     FM211300 16005KT 5SM BR SCT020=



000
FTUS43 KICT 201700
TAFCNU
TAF
KCNU 201720Z 2018/2118 02007KT P6SM SKC
     FM202000 04011KT P6SM SKC
     FM210000 03005KT P6SM SKC
     FM211200 09005KT P6SM SKC=



000
FTUS43 KICT 201400 AAB
TAFHUT
TAF AMD
KHUT 201442Z 2015/2112 01007KT P6SM SKC
      TEMPO 2015/2016 4SM BR SCT002
     FM201700 06013KT P6SM SKC
     FM210000 05005KT P6SM SKC=



000
FTUS43 KICT 201400 AAA
TAFHUT
TAF AMD
KHUT 201402Z 2014/2112 VRB03KT 3SM BR SCT002
      TEMPO 2014/2015 1/4SM FG BKN002
     FM201500 01007KT P6SM SKC
     FM201700 06013KT P6SM SKC
     FM210000 05005KT P6SM SKC=



000
FTUS43 KICT 201400 AAC
TAFRSL
TAF AMD
KRSL 201401Z 2014/2112 35007KT 5SM BR SKC
     FM201500 05008KT P6SM SKC
     FM210000 09006KT P6SM SKC
     FM210600 17006KT P6SM SKC=



000
FTUS43 KICT 201200 AAB
TAFRSL
TAF AMD
KRSL 201251Z 2013/2112 35007KT 5SM BR SKC
      TEMPO 2013/2015 1/2SM FG
     FM201500 05008KT P6SM SKC
     FM210000 09006KT P6SM SKC
     FM210600 17006KT P6SM SKC=



000
FTUS43 KICT 201200 AAA
TAFRSL
TAF AMD
KRSL 201231Z 2013/2112 35007KT P6SM SKC
      TEMPO 2013/2015 1SM BR
     FM201600 05008KT P6SM SKC
     FM210000 09006KT P6SM SKC
     FM210600 17006KT P6SM SKC=



000
FTUS43 KICT 201100
TAFSLN
TAF
KSLN 201136Z 2012/2112 32006KT P6SM SKC
      TEMPO 2012/2014 4SM BR
     FM201600 04009KT P6SM SKC
     FM210000 08006KT P6SM SKC
     FM210600 15006KT P6SM SKC=



000
FTUS43 KICT 201100
TAFHUT
TAF
KHUT 201136Z 2012/2112 VRB03KT 3SM BR SKC
      TEMPO 2012/2014 1/4SM FG
     FM201500 01007KT P6SM SKC
     FM201700 06013KT P6SM SKC
     FM210000 05005KT P6SM SKC=



000
FTUS43 KICT 201100
TAFRSL
TAF
KRSL 201136Z 2012/2112 35007KT P6SM SKC
     FM201600 05008KT P6SM SKC
     FM210000 09006KT P6SM SKC
     FM210600 17006KT P6SM SKC=



000
FTUS43 KICT 201100
TAFCNU
TAF
KCNU 201136Z 2012/2112 20007KT P6SM BKN050
     FM201400 26005KT P6SM SCT070
     FM201700 02007KT P6SM SCT060
     FM202000 04011KT P6SM SKC
     FM210000 03005KT P6SM SKC=



000
FTUS43 KICT 201100
TAFICT
TAF
KICT 201136Z 2012/2112 VRB03KT P6SM SKC
      TEMPO 2012/2014 4SM BR
     FM201500 01007KT P6SM SKC
     FM201700 06013KT P6SM SKC
     FM210000 06005KT P6SM SKC=



000
FTUS43 KICT 201000 AAA
TAFHUT
TAF AMD
KHUT 201044Z 2011/2106 14005KT 4SM BR SCT070
      TEMPO 2011/2014 1/4SM FG
     FM201400 02009KT P6SM SKC=



000
FTUS43 KICT 200500
TAFSLN
TAF
KSLN 200520Z 2006/2106 22005KT P6SM SKC
     FM201100 01007KT P6SM SKC=



000
FTUS43 KICT 200500
TAFRSL
TAF
KRSL 200520Z 2006/2106 12007KT P6SM SKC
     FM200800 01004KT P6SM SKC
     FM201400 03007KT P6SM SKC=



000
FTUS43 KICT 200500
TAFICT
TAF
KICT 200520Z 2006/2106 17005KT P6SM SCT070
     FM201100 00000KT P6SM SKC
     FM201700 06009KT P6SM SKC=



000
FTUS43 KICT 200500
TAFCNU
TAF
KCNU 200520Z 2006/2106 18007KT P6SM OVC070
     FM201400 26004KT P6SM BKN070
     FM201700 00000KT P6SM SCT060
     FM202000 02007KT P6SM SKC=



000
FTUS43 KICT 200500
TAFHUT
TAF
KHUT 200520Z 2006/2106 14005KT P6SM SCT070
     FM201100 00000KT P6SM SKC
     FM201400 02009KT P6SM SKC=



000
FTUS43 KICT 192300
TAFCNU
TAF
KCNU 192340Z 2000/2024 18007KT P6SM BKN080
     FM201400 26004KT P6SM OVC060
     FM201700 00000KT P6SM SCT060
     FM202000 02007KT P6SM SKC=



000
FTUS43 KICT 192300
TAFSLN
TAF
KSLN 192340Z 2000/2024 17007KT P6SM SCT070
     FM200500 22005KT P6SM SKC
     FM201100 01007KT P6SM SKC=



000
FTUS43 KICT 192300
TAFRSL
TAF
KRSL 192340Z 2000/2024 17007KT P6SM SCT070
     FM200500 00000KT P6SM SKC
     FM200800 01004KT P6SM SKC
     FM201400 03007KT P6SM SKC=



000
FTUS43 KICT 192300
TAFICT
TAF
KICT 192340Z 2000/2024 15007KT P6SM OVC060
     FM201100 00000KT P6SM SCT050
     FM201700 06009KT P6SM SKC=



000
FTUS43 KICT 192300
TAFHUT
TAF
KHUT 192340Z 2000/2024 17009KT P6SM OVC060
     FM201100 00000KT P6SM SCT050
     FM201400 02009KT P6SM SKC=



000
FTUS43 KICT 192300
TAFSLN
TAF
KSLN 192340Z 2000/2024 17007KT P6SM SCT070
     FM200500 22005KT P6SM SKC
     FM201100 01007KT P6SM SKC=



000
FTUS43 KICT 192300
TAFCNU
TAF
KCNU 192340Z 2000/2024 18007KT P6SM BKN080
     FM201400 26004KT P6SM OVC060
     FM201700 00000KT P6SM SCT060
     FM202000 02007KT P6SM SKC=



000
FTUS43 KICT 192300
TAFHUT
TAF
KHUT 192340Z 2000/2024 17009KT P6SM OVC060
     FM201100 00000KT P6SM SCT050
     FM201400 02009KT P6SM SKC=



000
FTUS43 KICT 192300
TAFRSL
TAF
KRSL 192340Z 2000/2024 17007KT P6SM SCT070
     FM200500 00000KT P6SM SKC
     FM200800 01004KT P6SM SKC
     FM201400 03007KT P6SM SKC=



000
FTUS43 KICT 192300
TAFICT
TAF
KICT 192340Z 2000/2024 15007KT P6SM OVC060
     FM201100 00000KT P6SM SCT050
     FM201700 06009KT P6SM SKC=



    US Dept of Commerce
    National Oceanic and Atmospheric Administration
    National Weather Service
    1325 East West Highway
    Silver Spring, MD 20910
    Page Author: NWS Internet Services Team
Disclaimer
Information Quality
Credits
Glossary
Privacy Policy
Freedom of Information Act (FOIA)
About Us
Career Opportunities